createdAt,value
2018-11-11T00:01:16.872Z,9.60
2018-11-11T00:03:45.051Z,9.70
2018-11-11T00:06:13.259Z,9.60
2018-11-11T00:08:41.427Z,9.60
2018-11-11T00:11:09.623Z,9.60
2018-11-11T00:13:37.810Z,9.60
2018-11-11T00:16:06.031Z,9.70
2018-11-11T00:18:34.884Z,9.60
2018-11-11T00:21:03.115Z,9.60
2018-11-11T00:23:31.310Z,9.60
2018-11-11T00:25:59.519Z,9.60
2018-11-11T00:28:27.693Z,9.60
2018-11-11T00:30:55.882Z,9.60
2018-11-11T00:33:24.063Z,9.60
2018-11-11T00:35:52.305Z,9.60
2018-11-11T00:38:20.554Z,9.60
2018-11-11T00:40:48.767Z,9.60
2018-11-11T00:43:16.946Z,9.50
2018-11-11T00:45:45.148Z,9.60
2018-11-11T00:48:13.315Z,9.50
2018-11-11T00:50:41.499Z,9.50
2018-11-11T00:53:09.707Z,9.50
2018-11-11T00:55:37.890Z,9.40
2018-11-11T00:58:06.086Z,9.40
2018-11-11T01:00:34.262Z,9.50
2018-11-11T01:03:02.458Z,9.40
2018-11-11T01:05:30.634Z,9.40
2018-11-11T01:07:58.844Z,9.40
2018-11-11T01:10:27.031Z,9.40
2018-11-11T01:12:55.222Z,9.40
2018-11-11T01:15:23.419Z,9.30
2018-11-11T01:17:51.682Z,9.30
2018-11-11T01:20:20.359Z,9.40
2018-11-11T01:22:48.861Z,9.40
2018-11-11T01:25:17.877Z,9.40
2018-11-11T01:27:46.055Z,9.40
2018-11-11T01:30:14.242Z,9.30
2018-11-11T01:32:42.448Z,9.30
2018-11-11T01:35:12.275Z,9.30
2018-11-11T01:37:40.954Z,9.20
2018-11-11T01:40:09.147Z,9.10
2018-11-11T01:42:37.427Z,9.10
2018-11-11T01:45:08.648Z,9.10
2018-11-11T01:47:36.823Z,9.10
2018-11-11T01:50:06.630Z,9.00
2018-11-11T01:52:34.844Z,9.00
2018-11-11T01:55:03.050Z,9.00
2018-11-11T01:57:31.309Z,9.10
2018-11-11T01:59:59.508Z,9.20
2018-11-11T02:02:27.728Z,9.10
2018-11-11T02:04:55.927Z,9.00
2018-11-11T02:07:24.192Z,9.00
2018-11-11T02:09:52.422Z,8.70
2018-11-11T02:12:20.550Z,8.60
2018-11-11T02:14:48.738Z,8.70
2018-11-11T02:17:16.948Z,8.60
2018-11-11T02:19:45.127Z,8.60
2018-11-11T02:22:13.303Z,8.70
2018-11-11T02:24:41.479Z,8.60
2018-11-11T02:27:09.834Z,8.70
2018-11-11T02:29:38.012Z,8.70
2018-11-11T02:32:06.433Z,8.80
2018-11-11T02:34:34.883Z,8.80
2018-11-11T02:37:03.125Z,8.70
2018-11-11T02:39:31.331Z,8.60
2018-11-11T02:42:00.025Z,8.70
2018-11-11T02:44:28.257Z,8.70
2018-11-11T02:46:56.485Z,8.70
2018-11-11T02:49:24.688Z,8.70
2018-11-11T02:51:52.871Z,8.70
2018-11-11T02:54:21.047Z,8.70
2018-11-11T02:56:49.230Z,8.70
2018-11-11T02:59:17.636Z,8.80
2018-11-11T03:01:45.824Z,8.80
2018-11-11T03:04:14.082Z,8.80
2018-11-11T03:06:42.218Z,8.80
2018-11-11T03:09:11.981Z,8.80
2018-11-11T03:11:40.531Z,8.80
2018-11-11T03:14:09.007Z,8.90
2018-11-11T03:16:37.590Z,8.80
2018-11-11T03:19:06.494Z,8.80
2018-11-11T03:21:34.724Z,8.80
2018-11-11T03:24:03.276Z,8.80
2018-11-11T03:26:31.451Z,8.80
2018-11-11T03:28:59.611Z,8.80
2018-11-11T03:31:27.785Z,8.80
2018-11-11T03:33:55.984Z,8.90
2018-11-11T03:36:24.146Z,8.80
2018-11-11T03:38:52.347Z,8.80
2018-11-11T03:41:20.515Z,8.80
2018-11-11T03:43:48.674Z,8.80
2018-11-11T03:46:16.855Z,8.90
2018-11-11T03:48:45.877Z,8.90
2018-11-11T03:51:14.038Z,9.00
2018-11-11T03:53:42.574Z,9.00
2018-11-11T03:56:10.790Z,9.00
2018-11-11T03:58:39.020Z,9.00
2018-11-11T04:01:07.510Z,9.00
2018-11-11T04:03:35.704Z,9.00
2018-11-11T04:06:03.865Z,9.00
2018-11-11T04:08:32.068Z,9.00
2018-11-11T04:11:00.247Z,9.00
2018-11-11T04:13:28.412Z,9.10
2018-11-11T04:15:56.575Z,9.10
2018-11-11T04:18:24.742Z,9.10
2018-11-11T04:20:52.903Z,9.10
2018-11-11T04:23:21.070Z,9.10
2018-11-11T04:25:49.235Z,9.10
2018-11-11T04:28:17.431Z,9.20
2018-11-11T04:30:45.588Z,9.30
2018-11-11T04:33:13.792Z,9.20
2018-11-11T04:35:41.971Z,9.30
2018-11-11T04:38:10.201Z,9.30
2018-11-11T04:40:38.397Z,9.30
2018-11-11T04:43:06.571Z,9.30
2018-11-11T04:45:34.772Z,9.20
2018-11-11T04:48:02.977Z,9.20
2018-11-11T04:50:31.139Z,9.10
2018-11-11T04:52:59.306Z,9.20
2018-11-11T04:55:27.504Z,9.30
2018-11-11T04:57:55.696Z,9.30
2018-11-11T05:00:23.859Z,9.20
2018-11-11T05:02:52.027Z,9.20
2018-11-11T05:05:20.186Z,9.20
2018-11-11T05:07:48.354Z,9.20
2018-11-11T05:10:16.518Z,9.20
2018-11-11T05:12:44.699Z,9.20
2018-11-11T05:15:13.684Z,9.20
2018-11-11T05:17:42.081Z,9.20
2018-11-11T05:20:11.202Z,9.10
2018-11-11T05:22:39.362Z,9.10
2018-11-11T05:25:09.319Z,9.10
2018-11-11T05:27:37.483Z,9.00
2018-11-11T05:30:07.200Z,8.90
2018-11-11T05:32:35.363Z,8.90
2018-11-11T05:35:03.534Z,8.80
2018-11-11T05:37:31.729Z,8.80
2018-11-11T05:40:00.605Z,8.80
2018-11-11T05:42:29.022Z,8.80
2018-11-11T05:44:57.215Z,8.80
2018-11-11T05:47:25.692Z,8.80
2018-11-11T05:49:54.014Z,8.80
2018-11-11T05:52:22.298Z,8.60
2018-11-11T05:54:50.606Z,8.40
2018-11-11T05:57:18.931Z,8.30
2018-11-11T05:59:47.197Z,8.30
2018-11-11T06:02:15.479Z,8.40
2018-11-11T06:04:43.817Z,8.30
2018-11-11T06:07:11.974Z,8.30
2018-11-11T06:09:40.177Z,8.40
2018-11-11T06:12:08.359Z,8.40
2018-11-11T06:14:36.554Z,8.50
2018-11-11T06:17:04.833Z,8.50
2018-11-11T06:19:33.051Z,8.60
2018-11-11T06:22:01.219Z,8.70
2018-11-11T06:24:29.399Z,8.60
2018-11-11T06:26:57.612Z,8.60
2018-11-11T06:29:25.790Z,8.70
2018-11-11T06:31:53.975Z,8.70
2018-11-11T06:34:22.332Z,8.60
2018-11-11T06:36:50.577Z,8.70
2018-11-11T06:39:18.883Z,8.70
2018-11-11T06:41:47.067Z,8.70
2018-11-11T06:44:15.275Z,8.70
2018-11-11T06:46:43.546Z,8.70
2018-11-11T06:49:11.964Z,8.70
2018-11-11T06:51:40.340Z,8.70
2018-11-11T06:54:08.712Z,8.60
2018-11-11T06:56:36.907Z,8.70
2018-11-11T06:59:05.166Z,8.70
2018-11-11T07:01:33.355Z,8.70
2018-11-11T07:04:02.699Z,8.80
2018-11-11T07:06:31.383Z,8.80
2018-11-11T07:08:59.684Z,8.90
2018-11-11T07:11:27.891Z,8.90
2018-11-11T07:13:56.147Z,8.90
2018-11-11T07:16:24.443Z,8.90
2018-11-11T07:18:52.727Z,8.80
2018-11-11T07:21:21.062Z,8.90
2018-11-11T07:23:49.500Z,9.00
2018-11-11T07:26:17.591Z,9.00
2018-11-11T07:28:45.969Z,8.90
2018-11-11T07:31:14.286Z,9.00
2018-11-11T07:33:42.615Z,9.10
2018-11-11T07:36:11.411Z,9.20
2018-11-11T07:38:39.775Z,9.30
2018-11-11T07:41:08.383Z,9.40
2018-11-11T07:43:36.971Z,9.50
2018-11-11T07:46:05.788Z,9.60
2018-11-11T07:48:34.139Z,9.60
2018-11-11T07:51:02.696Z,9.50
2018-11-11T07:53:30.908Z,9.60
2018-11-11T07:55:59.110Z,9.50
2018-11-11T07:58:28.423Z,9.50
2018-11-11T08:00:56.560Z,9.50
2018-11-11T08:03:24.724Z,9.50
2018-11-11T08:05:52.894Z,9.50
2018-11-11T08:08:21.079Z,9.60
2018-11-11T08:11:00.919Z,9.60
2018-11-11T08:13:29.035Z,9.70
2018-11-11T08:15:57.265Z,9.90
2018-11-11T08:18:25.528Z,10.00
2018-11-11T08:20:53.779Z,9.90
2018-11-11T08:23:22.151Z,10.00
2018-11-11T08:25:50.484Z,10.10
2018-11-11T08:28:19.266Z,10.30
2018-11-11T08:30:47.446Z,10.40
2018-11-11T08:33:15.663Z,10.30
2018-11-11T08:35:43.986Z,10.20
2018-11-11T08:38:12.279Z,10.30
2018-11-11T08:40:41.331Z,10.10
2018-11-11T08:43:09.474Z,10.20
2018-11-11T08:45:37.678Z,10.20
2018-11-11T08:48:06.020Z,10.30
2018-11-11T08:50:34.425Z,10.40
2018-11-11T08:53:02.611Z,10.20
2018-11-11T08:55:31.060Z,10.20
2018-11-11T08:57:59.490Z,10.30
2018-11-11T09:00:27.727Z,10.40
2018-11-11T09:02:56.191Z,10.40
2018-11-11T09:05:24.819Z,10.50
2018-11-11T09:07:53.165Z,10.50
2018-11-11T09:10:21.461Z,10.60
2018-11-11T09:12:49.658Z,10.70
2018-11-11T09:15:17.839Z,10.70
2018-11-11T09:17:46.094Z,10.70
2018-11-11T09:20:15.360Z,10.80
2018-11-11T09:22:43.957Z,10.70
2018-11-11T09:25:12.304Z,10.80
2018-11-11T09:27:41.543Z,10.70
2018-11-11T09:30:11.906Z,10.80
2018-11-11T09:32:40.322Z,10.70
2018-11-11T09:35:09.192Z,10.70
2018-11-11T09:37:37.899Z,10.80
2018-11-11T09:40:06.971Z,10.90
2018-11-11T09:42:35.197Z,10.90
2018-11-11T09:45:03.543Z,11.00
2018-11-11T09:47:31.791Z,11.10
2018-11-11T09:50:00.375Z,11.10
2018-11-11T09:52:28.718Z,11.20
2018-11-11T09:54:56.907Z,11.30
2018-11-11T09:57:25.440Z,11.30
2018-11-11T09:59:53.860Z,11.40
2018-11-11T10:02:22.213Z,11.50
2018-11-11T10:05:06.814Z,11.60
2018-11-11T10:08:12.254Z,11.60
2018-11-11T10:10:46.019Z,11.60
2018-11-11T10:13:28.925Z,11.60
2018-11-11T10:17:04.538Z,11.70
2018-11-11T10:20:09.763Z,11.80
2018-11-11T10:22:44.518Z,11.80
2018-11-11T10:25:46.992Z,11.70
2018-11-11T10:28:22.844Z,11.80
2018-11-11T10:31:13.730Z,11.90
2018-11-11T10:33:47.239Z,12.00
2018-11-11T10:36:28.335Z,12.10
2018-11-11T10:39:08.993Z,12.20
2018-11-11T10:42:15.149Z,12.30
2018-11-11T10:44:50.292Z,12.30
2018-11-11T10:47:28.423Z,12.20
2018-11-11T10:50:00.071Z,12.20
2018-11-11T10:52:28.295Z,12.20
2018-11-11T10:54:56.677Z,12.30
2018-11-11T10:57:25.283Z,12.50
2018-11-11T10:59:53.502Z,12.70
2018-11-11T11:02:28.425Z,12.70
2018-11-11T11:05:02.066Z,12.80
2018-11-11T11:07:30.229Z,12.90
2018-11-11T11:09:58.471Z,13.30
2018-11-11T11:12:26.899Z,13.50
2018-11-11T11:14:55.225Z,13.80
2018-11-11T11:17:23.785Z,14.30
2018-11-11T11:19:52.130Z,14.80
2018-11-11T11:22:20.325Z,15.40
2018-11-11T11:24:48.495Z,15.70
2018-11-11T11:27:16.763Z,15.60
2018-11-11T11:29:44.890Z,15.90
2018-11-11T11:32:13.091Z,16.00
2018-11-11T11:34:41.303Z,16.20
2018-11-11T11:37:09.491Z,16.00
2018-11-11T11:39:37.666Z,15.90
2018-11-11T11:42:05.834Z,15.90
2018-11-11T11:44:34.079Z,15.80
2018-11-11T11:47:02.231Z,15.80
2018-11-11T11:49:30.560Z,15.80
2018-11-11T11:51:58.886Z,15.70
2018-11-11T11:54:27.155Z,15.70
2018-11-11T11:56:55.363Z,15.80
2018-11-11T11:59:23.659Z,15.70
2018-11-11T12:01:52.881Z,15.40
2018-11-11T12:04:21.224Z,15.40
2018-11-11T12:06:49.580Z,15.30
2018-11-11T12:09:17.772Z,15.40
2018-11-11T12:11:46.036Z,15.50
2018-11-11T12:14:14.251Z,16.00
2018-11-11T12:16:42.619Z,16.40
2018-11-11T12:19:10.794Z,16.40
2018-11-11T12:21:39.135Z,16.40
2018-11-11T12:24:07.320Z,16.60
2018-11-11T12:26:35.685Z,16.70
2018-11-11T12:29:03.872Z,16.70
2018-11-11T12:31:32.078Z,16.70
2018-11-11T12:34:00.302Z,17.00
2018-11-11T12:36:28.583Z,17.30
2018-11-11T12:38:56.859Z,17.70
2018-11-11T12:41:25.039Z,17.80
2018-11-11T12:43:53.230Z,18.00
2018-11-11T12:46:21.470Z,18.10
2018-11-11T12:48:49.798Z,18.20
2018-11-11T12:51:18.487Z,18.30
2018-11-11T12:53:46.733Z,18.30
2018-11-11T12:56:14.952Z,18.40
2018-11-11T12:58:43.128Z,18.60
2018-11-11T13:01:11.439Z,18.90
2018-11-11T13:03:39.817Z,19.00
2018-11-11T13:06:08.252Z,19.10
2018-11-11T13:08:36.469Z,19.10
2018-11-11T13:11:04.892Z,19.20
2018-11-11T13:13:33.090Z,19.20
2018-11-11T13:16:01.314Z,19.20
2018-11-11T13:18:30.159Z,19.30
2018-11-11T13:20:58.455Z,19.40
2018-11-11T13:23:26.715Z,19.40
2018-11-11T13:25:54.878Z,19.30
2018-11-11T13:28:23.046Z,19.20
2018-11-11T13:30:51.219Z,19.10
2018-11-11T13:33:19.380Z,19.10
2018-11-11T13:35:47.573Z,18.90
2018-11-11T13:38:15.922Z,18.70
2018-11-11T13:40:44.041Z,18.40
2018-11-11T13:43:12.236Z,18.10
2018-11-11T13:45:40.400Z,18.00
2018-11-11T13:48:08.577Z,17.80
2018-11-11T13:50:37.132Z,17.80
2018-11-11T13:53:06.017Z,17.90
2018-11-11T13:55:34.330Z,18.30
2018-11-11T13:58:02.621Z,18.80
2018-11-11T14:00:30.869Z,19.70
2018-11-11T14:02:59.251Z,20.50
2018-11-11T14:05:27.507Z,20.90
2018-11-11T14:07:55.834Z,20.90
2018-11-11T14:10:24.162Z,20.70
2018-11-11T14:12:52.381Z,20.30
2018-11-11T14:15:22.035Z,19.60
2018-11-11T14:17:50.685Z,19.10
2018-11-11T14:20:20.163Z,18.70
2018-11-11T14:22:49.880Z,18.40
2018-11-11T14:25:21.632Z,18.20
2018-11-11T14:27:50.516Z,18.20
2018-11-11T14:30:23.189Z,18.20
2018-11-11T14:32:52.389Z,18.10
2018-11-11T14:35:20.574Z,18.60
2018-11-11T14:37:49.595Z,19.00
2018-11-11T14:40:19.971Z,18.60
2018-11-11T14:42:48.263Z,18.20
2018-11-11T14:45:17.476Z,17.80
2018-11-11T14:47:46.868Z,17.40
2018-11-11T14:50:15.938Z,17.20
2018-11-11T14:52:44.883Z,16.90
2018-11-11T14:55:15.218Z,16.70
2018-11-11T14:57:43.532Z,16.40
2018-11-11T15:00:15.672Z,16.30
2018-11-11T15:02:44.493Z,16.20
2018-11-11T15:05:13.755Z,16.00
2018-11-11T15:07:42.892Z,15.90
2018-11-11T15:10:12.671Z,15.80
2018-11-11T15:12:41.255Z,15.60
2018-11-11T15:15:12.812Z,15.60
2018-11-11T15:17:41.140Z,15.50
2018-11-11T15:20:10.526Z,15.40
2018-11-11T15:22:38.685Z,15.20
2018-11-11T15:25:09.652Z,15.00
2018-11-11T15:27:39.844Z,14.80
2018-11-11T15:30:11.143Z,14.60
2018-11-11T15:32:39.465Z,14.40
2018-11-11T15:35:07.996Z,14.30
2018-11-11T15:37:36.728Z,14.10
2018-11-11T15:40:07.823Z,14.00
2018-11-11T15:42:36.119Z,13.90
2018-11-11T15:45:05.301Z,13.70
2018-11-11T15:47:33.524Z,13.50
2018-11-11T15:50:01.705Z,13.40
2018-11-11T15:52:29.882Z,13.30
2018-11-11T15:54:58.983Z,13.30
2018-11-11T15:57:27.234Z,13.20
2018-11-11T15:59:55.448Z,13.00
2018-11-11T16:02:23.636Z,13.00
2018-11-11T16:04:51.876Z,12.90
2018-11-11T16:07:20.188Z,12.80
2018-11-11T16:09:48.410Z,12.80
2018-11-11T16:12:16.947Z,12.70
2018-11-11T16:14:45.211Z,12.50
2018-11-11T16:17:13.481Z,12.50
2018-11-11T16:19:41.941Z,12.40
2018-11-11T16:22:10.198Z,12.30
2018-11-11T16:24:38.475Z,12.30
2018-11-11T16:27:06.860Z,12.30
2018-11-11T16:29:35.123Z,12.30
2018-11-11T16:32:03.507Z,12.20
2018-11-11T16:34:31.676Z,12.20
2018-11-11T16:37:00.111Z,12.20
2018-11-11T16:39:28.694Z,12.20
2018-11-11T16:41:57.000Z,12.10
2018-11-11T16:44:25.156Z,12.10
2018-11-11T16:46:53.341Z,12.10
2018-11-11T16:49:21.912Z,12.00
2018-11-11T16:51:50.644Z,12.00
2018-11-11T16:54:18.984Z,12.00
2018-11-11T16:56:47.294Z,12.10
2018-11-11T16:59:15.501Z,12.10
2018-11-11T17:01:43.738Z,12.00
2018-11-11T17:04:11.982Z,11.80
2018-11-11T17:06:40.420Z,11.80
2018-11-11T17:09:11.292Z,11.70
2018-11-11T17:11:39.887Z,11.60
2018-11-11T17:14:08.175Z,11.60
2018-11-11T17:16:36.855Z,11.50
2018-11-11T17:19:05.134Z,11.50
2018-11-11T17:21:33.467Z,11.40
2018-11-11T17:24:01.634Z,11.50
2018-11-11T17:26:29.859Z,11.50
2018-11-11T17:28:58.276Z,11.50
2018-11-11T17:31:26.514Z,11.40
2018-11-11T17:33:54.674Z,11.30
2018-11-11T17:36:22.853Z,11.30
2018-11-11T17:38:51.058Z,11.20
2018-11-11T17:41:19.243Z,11.30
2018-11-11T17:43:47.485Z,11.20
2018-11-11T17:46:15.798Z,11.10
2018-11-11T17:48:44.184Z,11.00
2018-11-11T17:51:12.650Z,10.90
2018-11-11T17:53:40.879Z,10.90
2018-11-11T17:56:09.106Z,10.90
2018-11-11T17:58:37.338Z,10.80
2018-11-11T18:01:06.416Z,10.70
2018-11-11T18:03:34.669Z,10.60
2018-11-11T18:06:02.843Z,10.60
2018-11-11T18:08:31.048Z,10.70
2018-11-11T18:10:59.626Z,10.70
2018-11-11T18:13:27.921Z,10.70
2018-11-11T18:15:56.267Z,10.70
2018-11-11T18:18:24.481Z,10.80
2018-11-11T18:20:52.667Z,10.80
2018-11-11T18:23:20.897Z,10.80
2018-11-11T18:25:49.090Z,10.90
2018-11-11T18:28:17.688Z,11.00
2018-11-11T18:30:45.799Z,11.00
2018-11-11T18:33:14.294Z,10.90
2018-11-11T18:35:42.918Z,10.90
2018-11-11T18:38:11.438Z,10.90
2018-11-11T18:40:39.867Z,10.80
2018-11-11T18:43:08.263Z,10.70
2018-11-11T18:45:36.693Z,10.60
2018-11-11T18:48:05.353Z,10.50
2018-11-11T18:50:34.285Z,10.50
2018-11-11T18:53:03.391Z,10.40
2018-11-11T18:55:31.747Z,10.40
2018-11-11T18:58:00.411Z,10.30
2018-11-11T19:00:30.175Z,10.30
2018-11-11T19:02:58.717Z,10.30
2018-11-11T19:05:27.373Z,10.20
2018-11-11T19:07:55.854Z,10.20
2018-11-11T19:10:26.273Z,10.10
2018-11-11T19:12:55.919Z,10.00
2018-11-11T19:15:24.512Z,10.00
2018-11-11T19:17:53.436Z,10.00
2018-11-11T19:20:23.075Z,9.90
2018-11-11T19:22:51.256Z,9.90
2018-11-11T19:25:21.773Z,9.90
2018-11-11T19:27:51.056Z,9.80
2018-11-11T19:30:20.470Z,9.80
2018-11-11T19:32:49.359Z,9.70
2018-11-11T19:35:17.844Z,9.70
2018-11-11T19:37:47.491Z,9.70
2018-11-11T19:40:18.998Z,9.70
2018-11-11T19:42:48.509Z,9.60
2018-11-11T19:45:19.649Z,9.50
2018-11-11T19:47:47.847Z,9.50
2018-11-11T19:50:18.446Z,9.50
2018-11-11T19:52:47.876Z,9.50
2018-11-11T19:55:17.051Z,9.50
2018-11-11T19:57:45.226Z,9.40
2018-11-11T20:00:15.779Z,9.40
2018-11-11T20:02:45.453Z,9.40
2018-11-11T20:05:14.594Z,9.40
2018-11-11T20:07:44.120Z,9.40
2018-11-11T20:10:13.557Z,9.40
2018-11-11T20:12:41.764Z,9.40
2018-11-11T20:15:12.519Z,9.30
2018-11-11T20:17:40.829Z,9.40
2018-11-11T20:20:11.799Z,9.30
2018-11-11T20:22:40.299Z,9.30
2018-11-11T20:25:09.556Z,9.30
2018-11-11T20:27:38.159Z,9.20
2018-11-11T20:30:10.392Z,9.30
2018-11-11T20:32:39.271Z,9.20
2018-11-11T20:35:08.283Z,9.20
2018-11-11T20:37:36.503Z,9.20
2018-11-11T20:40:06.471Z,9.10
2018-11-11T20:42:34.643Z,9.00
2018-11-11T20:45:03.027Z,8.90
2018-11-11T20:47:31.195Z,8.90
2018-11-11T20:49:59.394Z,8.80
2018-11-11T20:52:27.620Z,8.80
2018-11-11T20:54:56.120Z,8.70
2018-11-11T20:57:24.431Z,8.70
2018-11-11T20:59:52.771Z,8.70
2018-11-11T21:02:20.996Z,8.60
2018-11-11T21:04:49.416Z,8.50
2018-11-11T21:07:17.731Z,8.60
2018-11-11T21:09:46.101Z,8.50
2018-11-11T21:12:14.303Z,8.40
2018-11-11T21:14:42.494Z,8.40
2018-11-11T21:17:10.795Z,8.40
2018-11-11T21:19:39.201Z,8.30
2018-11-11T21:22:12.268Z,8.40
2018-11-11T21:24:40.482Z,8.30
2018-11-11T21:27:09.023Z,8.20
2018-11-11T21:29:37.407Z,8.20
2018-11-11T21:32:05.860Z,8.10
2018-11-11T21:34:34.574Z,8.10
2018-11-11T21:37:02.755Z,8.10
2018-11-11T21:39:30.940Z,8.10
2018-11-11T21:41:59.209Z,8.00
2018-11-11T21:44:27.455Z,7.90
2018-11-11T21:46:55.662Z,7.90
2018-11-11T21:49:23.866Z,7.90
2018-11-11T21:51:52.051Z,7.80
2018-11-11T21:54:20.247Z,7.80
2018-11-11T21:56:48.463Z,7.90
2018-11-11T21:59:16.716Z,7.90
2018-11-11T22:01:44.938Z,7.90
2018-11-11T22:04:13.151Z,8.00
2018-11-11T22:06:41.384Z,8.00
2018-11-11T22:09:10.466Z,8.00
2018-11-11T22:11:38.711Z,8.00
2018-11-11T22:14:08.133Z,7.90
2018-11-11T22:16:36.312Z,8.00
2018-11-11T22:19:04.951Z,8.00
2018-11-11T22:21:33.164Z,8.00
2018-11-11T22:24:01.380Z,8.00
2018-11-11T22:26:29.538Z,7.90
2018-11-11T22:28:57.698Z,7.90
2018-11-11T22:31:25.896Z,7.90
2018-11-11T22:33:54.117Z,7.90
2018-11-11T22:36:22.279Z,7.90
2018-11-11T22:38:50.463Z,7.90
2018-11-11T22:41:18.659Z,7.90
2018-11-11T22:43:46.845Z,8.00
2018-11-11T22:46:15.015Z,8.00
2018-11-11T22:48:43.908Z,8.00
2018-11-11T22:51:12.070Z,7.90
2018-11-11T22:53:40.247Z,7.90
2018-11-11T22:56:08.416Z,7.90
2018-11-11T22:58:36.586Z,7.90
2018-11-11T23:01:10.318Z,7.90
2018-11-11T23:03:38.542Z,7.90
2018-11-11T23:06:07.091Z,7.80
2018-11-11T23:08:36.175Z,7.80
2018-11-11T23:11:04.446Z,7.80
2018-11-11T23:13:32.968Z,7.80
2018-11-11T23:16:06.347Z,7.80
2018-11-11T23:18:34.525Z,7.80
2018-11-11T23:21:02.781Z,7.80
2018-11-11T23:23:30.993Z,7.70
2018-11-11T23:25:59.233Z,7.70
2018-11-11T23:28:27.535Z,7.60
2018-11-11T23:30:56.085Z,7.60
2018-11-11T23:33:24.274Z,7.60
2018-11-11T23:36:01.340Z,7.70
2018-11-11T23:38:36.700Z,7.70
2018-11-11T23:41:07.215Z,7.60
2018-11-11T23:43:35.783Z,7.60
2018-11-11T23:46:03.974Z,7.50
2018-11-11T23:48:32.150Z,7.50
2018-11-11T23:51:00.653Z,7.50
2018-11-11T23:53:28.832Z,7.50
2018-11-11T23:55:57.022Z,7.40
2018-11-11T23:58:25.268Z,7.40
